Cascade Locks, OR

3:46 AM PST on December 27, 2014 (GMT -0800)
Stevenson, WA | Change Station
CLOSE
Current Station
Personal Weather Station
Location: Stevenson, WA
Elevation: 279 ft
Nearby Weather Stations

Elev 279 ft 45.70 °N, 121.90 °W | Updated 12 seconds ago

Overcast
Overcast
44.1 °F
Feels Like 44 °F
N
0.0
Wind Variable Wind from NW
Gusts 0.0 mph

Today
High -- | Low -- °F
--% Chance of Precip.
Yesterday
High -- | Low -- °F
Precip. -- in
7:47 AM 4:29 PM
Waxing Crescent, 35% visible
Pressure 30.32 in
Visibility 10.0 miles
Clouds Overcast 3600 ft
Windchill 44 °F
Dew Point 44 °F
Humidity 98%
Rainfall 0.00 in
Snow Depth Not available.
UV 0.0 out of 12
Pollen 1.20 out of 12
Air Quality Not available.
Flu Activity Not available.
METAR KTTD 271053Z AUTO 12004KT 10SM OVC036 07/06 A3032 RMK AO2 SLP267 T00720056

More Conditions Fewer Conditions

Pressure 30.32 in
Visibility 10.0 miles
Clouds Overcast 3600 ft
Windchill 44 °F
Dew Point 44 °F
Humidity 98%
Rainfall 0.00 in
Snow Depth Not available.
UV 0.0 out of 12
Pollen 1.20 out of 12
Air Quality Not available.
Flu Activity Not available.
METAR KTTD 271053Z AUTO 12004KT 10SM OVC036 07/06 A3032 RMK AO2 SLP267 T00720056

More Conditions Fewer Conditions

10-Day Weather Forecast

Almanac

Astronomy

Dec. 27, 2014 Rise Set
Actual Time
Civil Twilight
Nautical Twilight
Astronomical Twilight
Moon
Length of Visible Light
Length of Day
Tomorrow will be .
, % of the Moon is Illuminated

Today's Extremes

State Highs State Lows

Community

WunderPhotos

Upload Photos

1,780,885 photos uploaded!

WunderBlogs® & News

Nearby

Air Quality

  Air Quality AQ Index Pollutant
Not available.

Snow Depth

Station Depth Elevation

Earthquake Activity

City Distance Mag. Time & Date
Minimum magnitude displayed is 2.5.

Coastal Water Temperatures

Place Temperature

Nearby Weather Stations